createdAt,value
2024-01-21T00:01:53.278Z,42.03
2024-01-21T00:04:21.806Z,38.73
2024-01-21T00:06:50.707Z,40.20
2024-01-21T00:09:19.084Z,40.40
2024-01-21T00:11:48.993Z,40.57
2024-01-21T00:14:17.372Z,39.97
2024-01-21T00:16:45.725Z,42.47
2024-01-21T00:19:14.245Z,44.50
2024-01-21T00:21:42.935Z,42.40
2024-01-21T00:24:11.361Z,42.17
2024-01-21T00:26:41.296Z,42.63
2024-01-21T00:29:11.239Z,40.33
2024-01-21T00:31:39.735Z,39.97
2024-01-21T00:34:08.121Z,38.67
2024-01-21T00:36:36.531Z,37.30
2024-01-21T00:39:05.051Z,34.67
2024-01-21T00:41:33.530Z,35.93
2024-01-21T00:44:01.922Z,35.53
2024-01-21T00:46:31.665Z,37.93
2024-01-21T00:49:01.217Z,35.80
2024-01-21T00:51:29.811Z,39.03
2024-01-21T00:53:58.285Z,38.37
2024-01-21T00:56:26.643Z,37.90
2024-01-21T00:58:54.946Z,38.77
2024-01-21T01:01:23.400Z,40.00
2024-01-21T01:03:53.264Z,40.90
2024-01-21T01:06:21.868Z,38.17
2024-01-21T01:08:50.252Z,38.90
2024-01-21T01:11:21.956Z,40.33
2024-01-21T01:13:50.355Z,40.23
2024-01-21T01:16:18.890Z,37.47
2024-01-21T01:18:47.742Z,39.83
2024-01-21T01:21:17.735Z,38.90
2024-01-21T01:23:46.371Z,40.70
2024-01-21T01:26:14.861Z,37.07
2024-01-21T01:28:44.965Z,38.17
2024-01-21T01:31:18.799Z,38.83
2024-01-21T01:33:48.089Z,38.20
2024-01-21T01:36:18.097Z,35.73
2024-01-21T01:38:46.786Z,44.43
2024-01-21T01:41:15.191Z,37.23
2024-01-21T01:43:43.679Z,37.67
2024-01-21T01:46:13.192Z,44.23
2024-01-21T01:48:41.791Z,41.07
2024-01-21T01:51:10.830Z,45.33
2024-01-21T01:53:40.696Z,39.93
2024-01-21T01:56:09.881Z,43.97
2024-01-21T01:58:40.708Z,41.83
2024-01-21T02:01:09.864Z,42.70
2024-01-21T02:03:38.473Z,39.13
2024-01-21T02:06:08.197Z,38.93
2024-01-21T02:08:36.708Z,38.20
2024-01-21T02:11:06.854Z,37.93
2024-01-21T02:13:35.546Z,37.97
2024-01-21T02:16:04.684Z,35.60
2024-01-21T02:18:34.583Z,36.50
2024-01-21T02:21:03.281Z,37.37
2024-01-21T02:23:33.164Z,38.43
2024-01-21T02:26:01.522Z,37.43
2024-01-21T02:28:29.909Z,38.53
2024-01-21T02:30:58.576Z,40.07
2024-01-21T02:33:27.666Z,40.10
2024-01-21T02:35:56.232Z,39.37
2024-01-21T02:38:24.738Z,40.20
2024-01-21T02:40:54.539Z,39.83
2024-01-21T02:43:23.002Z,42.30
2024-01-21T02:45:51.501Z,40.23
2024-01-21T02:48:20.111Z,39.30
2024-01-21T02:50:48.587Z,41.37
2024-01-21T02:53:17.349Z,38.30
2024-01-21T02:55:45.770Z,37.70
2024-01-21T02:58:15.523Z,36.10
2024-01-21T03:00:44.096Z,31.43
2024-01-21T03:03:12.837Z,38.30
2024-01-21T03:05:41.226Z,34.60
2024-01-21T03:08:10.503Z,35.67
2024-01-21T03:10:38.933Z,34.83
2024-01-21T03:13:08.460Z,34.93
2024-01-21T03:15:38.305Z,34.97
2024-01-21T03:18:07.042Z,33.53
2024-01-21T03:20:35.484Z,32.23
2024-01-21T03:23:04.041Z,30.83
2024-01-21T03:25:32.486Z,32.70
2024-01-21T03:28:01.048Z,32.37
2024-01-21T03:30:29.652Z,32.47
2024-01-21T03:32:59.889Z,32.67
2024-01-21T03:35:28.402Z,32.70
2024-01-21T03:37:56.979Z,33.30
2024-01-21T03:40:25.418Z,32.13
2024-01-21T03:42:53.839Z,32.30
2024-01-21T03:45:22.351Z,32.93
2024-01-21T03:47:50.853Z,31.43
2024-01-21T03:50:21.743Z,31.80
2024-01-21T03:52:50.422Z,32.43
2024-01-21T03:55:19.957Z,33.00
2024-01-21T03:57:49.028Z,32.80
2024-01-21T04:00:18.466Z,35.00
2024-01-21T04:02:46.922Z,35.87
2024-01-21T04:05:15.532Z,36.37
2024-01-21T04:07:45.459Z,38.17
2024-01-21T04:10:13.833Z,36.37
2024-01-21T04:12:42.250Z,36.37
2024-01-21T04:15:10.934Z,37.17
2024-01-21T04:17:40.495Z,36.00
2024-01-21T04:20:10.471Z,36.00
2024-01-21T04:22:38.873Z,36.20
2024-01-21T04:25:09.522Z,35.70
2024-01-21T04:27:38.012Z,34.63
2024-01-21T04:30:07.755Z,35.70
2024-01-21T04:32:36.215Z,35.63
2024-01-21T04:35:04.915Z,34.43
2024-01-21T04:37:33.368Z,35.77
2024-01-21T04:40:01.814Z,34.97
2024-01-21T04:42:31.688Z,35.63
2024-01-21T04:45:00.510Z,35.67
2024-01-21T04:47:28.992Z,38.07
2024-01-21T04:49:57.433Z,38.43
2024-01-21T04:52:25.814Z,35.10
2024-01-21T04:54:54.282Z,35.63
2024-01-21T04:57:23.034Z,33.00
2024-01-21T04:59:53.008Z,33.50
2024-01-21T05:02:21.434Z,33.53
2024-01-21T05:04:49.862Z,33.53
2024-01-21T05:07:18.323Z,34.80
2024-01-21T05:09:46.804Z,33.13
2024-01-21T05:12:15.252Z,32.17
2024-01-21T05:14:43.712Z,33.67
2024-01-21T05:17:13.819Z,33.00
2024-01-21T05:19:42.661Z,33.10
2024-01-21T05:22:11.374Z,32.27
2024-01-21T05:24:39.841Z,31.87
2024-01-21T05:27:08.279Z,33.60
2024-01-21T05:29:38.229Z,32.50
2024-01-21T05:32:07.190Z,33.13
2024-01-21T05:34:36.997Z,33.13
2024-01-21T05:37:05.796Z,33.33
2024-01-21T05:39:34.535Z,31.40
2024-01-21T05:42:04.216Z,33.87
2024-01-21T05:44:32.808Z,33.47
2024-01-21T05:47:01.266Z,31.90
2024-01-21T05:49:30.900Z,32.23
2024-01-21T05:52:00.906Z,32.10
2024-01-21T05:54:29.438Z,30.87
2024-01-21T05:56:57.909Z,32.43
2024-01-21T05:59:26.320Z,30.70
2024-01-21T06:01:55.585Z,30.67
2024-01-21T06:04:25.108Z,29.67
2024-01-21T06:06:54.194Z,30.13
2024-01-21T06:09:24.277Z,29.97
2024-01-21T06:11:53.295Z,30.00
2024-01-21T06:14:21.703Z,29.37
2024-01-21T06:16:50.132Z,29.27
2024-01-21T06:19:18.940Z,29.57
2024-01-21T06:21:47.504Z,29.93
2024-01-21T06:24:18.225Z,30.83
2024-01-21T06:26:48.046Z,29.37
2024-01-21T06:29:16.522Z,27.40
2024-01-21T06:31:44.937Z,26.80
2024-01-21T06:34:13.465Z,28.53
2024-01-21T06:36:42.588Z,25.07
2024-01-21T06:39:11.544Z,27.10
2024-01-21T06:41:40.201Z,22.53
2024-01-21T06:44:10.224Z,20.93
2024-01-21T06:46:38.654Z,20.30
2024-01-21T06:49:07.671Z,22.27
2024-01-21T06:51:44.633Z,24.67
2024-01-21T06:54:13.325Z,31.20
2024-01-21T06:56:41.877Z,21.57
2024-01-21T06:59:13.267Z,21.07
2024-01-21T07:01:42.143Z,21.90
2024-01-21T07:04:10.649Z,21.73
2024-01-21T07:06:39.369Z,24.37
2024-01-21T07:09:09.142Z,23.13
2024-01-21T07:11:37.981Z,24.90
2024-01-21T07:14:07.468Z,26.97
2024-01-21T07:16:38.090Z,26.17
2024-01-21T07:19:06.694Z,23.97
2024-01-21T07:21:35.192Z,26.23
2024-01-21T07:24:03.922Z,26.80
2024-01-21T07:26:32.307Z,25.13
2024-01-21T07:29:00.720Z,29.00
2024-01-21T07:31:29.094Z,29.50
2024-01-21T07:33:59.002Z,25.43
2024-01-21T07:36:27.542Z,23.77
2024-01-21T07:38:56.432Z,23.53
2024-01-21T07:41:24.858Z,26.67
2024-01-21T07:43:53.271Z,27.60
2024-01-21T07:46:21.696Z,25.10
2024-01-21T07:48:50.455Z,26.53
2024-01-21T07:51:21.474Z,25.63
2024-01-21T07:53:52.434Z,26.33
2024-01-21T07:56:21.118Z,27.03
2024-01-21T07:58:49.540Z,26.37
2024-01-21T08:01:22.002Z,25.80
2024-01-21T08:03:50.811Z,27.67
2024-01-21T08:06:21.601Z,25.10
2024-01-21T08:08:50.170Z,24.80
2024-01-21T08:11:18.605Z,27.50
2024-01-21T08:13:47.546Z,28.93
2024-01-21T08:16:16.075Z,29.63
2024-01-21T08:18:45.456Z,29.23
2024-01-21T08:21:14.347Z,26.50
2024-01-21T08:23:44.114Z,25.53
2024-01-21T08:26:13.229Z,26.50
2024-01-21T08:28:41.643Z,27.63
2024-01-21T08:31:10.182Z,24.33
2024-01-21T08:33:38.756Z,25.83
2024-01-21T08:36:07.775Z,24.17
2024-01-21T08:38:39.717Z,24.43
2024-01-21T08:41:09.563Z,23.00
2024-01-21T08:43:38.396Z,22.00
2024-01-21T08:46:07.775Z,20.43
2024-01-21T08:48:36.387Z,18.53
2024-01-21T08:51:06.325Z,21.97
2024-01-21T08:53:34.794Z,17.43
2024-01-21T08:56:03.447Z,18.87
2024-01-21T08:58:33.201Z,18.67
2024-01-21T09:01:02.755Z,19.63
2024-01-21T09:03:31.894Z,18.13
2024-01-21T09:06:01.223Z,18.27
2024-01-21T09:08:29.647Z,18.40
2024-01-21T09:10:58.236Z,18.47
2024-01-21T09:13:27.103Z,18.67
2024-01-21T09:15:58.181Z,16.80
2024-01-21T09:18:26.749Z,16.70
2024-01-21T09:20:55.191Z,20.33
2024-01-21T09:23:23.667Z,18.57
2024-01-21T09:25:52.086Z,18.30
2024-01-21T09:28:20.907Z,18.17
2024-01-21T09:30:49.593Z,17.83
2024-01-21T09:33:21.136Z,17.97
2024-01-21T09:35:51.124Z,17.53
2024-01-21T09:38:22.648Z,17.37
2024-01-21T09:40:58.580Z,18.10
2024-01-21T09:43:29.689Z,17.53
2024-01-21T09:45:59.580Z,16.80
2024-01-21T09:48:29.941Z,17.67
2024-01-21T09:51:01.460Z,17.50
2024-01-21T09:53:29.879Z,18.63
2024-01-21T09:56:00.937Z,22.77
2024-01-21T09:58:31.111Z,20.17
2024-01-21T10:00:59.713Z,19.40
2024-01-21T10:03:29.566Z,15.10
2024-01-21T10:05:59.163Z,15.57
2024-01-21T10:08:29.018Z,14.67
2024-01-21T10:10:58.335Z,16.98
2024-01-21T10:13:26.651Z,15.73
2024-01-21T10:15:55.218Z,16.80
2024-01-21T10:18:24.069Z,14.47
2024-01-21T10:20:56.223Z,15.27
2024-01-21T10:23:26.014Z,13.77
2024-01-21T10:25:55.489Z,14.73
2024-01-21T10:28:24.530Z,14.30
2024-01-21T10:30:52.939Z,14.77
2024-01-21T10:33:21.463Z,15.47
2024-01-21T10:35:50.523Z,15.27
2024-01-21T10:38:20.719Z,13.03
2024-01-21T10:40:49.594Z,15.00
2024-01-21T10:43:20.949Z,13.93
2024-01-21T10:45:55.101Z,13.30
2024-01-21T10:48:24.397Z,15.10
2024-01-21T10:50:55.407Z,17.20
2024-01-21T10:53:26.058Z,16.90
2024-01-21T10:55:55.469Z,14.90
2024-01-21T10:58:24.629Z,18.43
2024-01-21T11:00:54.335Z,14.90
2024-01-21T11:03:28.167Z,15.83
2024-01-21T11:06:01.556Z,16.53
2024-01-21T11:08:33.292Z,15.67
2024-01-21T11:11:15.646Z,14.77
2024-01-21T11:13:46.422Z,15.57
2024-01-21T11:16:35.359Z,16.07
2024-01-21T11:19:05.996Z,14.17
2024-01-21T11:21:35.746Z,14.50
2024-01-21T11:24:06.959Z,15.77
2024-01-21T11:26:38.900Z,15.23
2024-01-21T11:29:25.269Z,12.47
2024-01-21T11:31:54.208Z,11.97
2024-01-21T11:34:24.152Z,12.73
2024-01-21T11:36:53.011Z,11.60
2024-01-21T11:39:25.167Z,12.27
2024-01-21T11:41:54.131Z,10.63
2024-01-21T11:44:28.081Z,10.30
2024-01-21T11:46:59.741Z,9.70
2024-01-21T11:49:28.469Z,9.00
2024-01-21T11:51:58.486Z,9.77
2024-01-21T11:54:29.216Z,10.30
2024-01-21T11:56:57.814Z,9.13
2024-01-21T11:59:26.641Z,9.25
2024-01-21T12:01:59.675Z,9.18
2024-01-21T12:04:30.252Z,8.20
2024-01-21T12:07:00.085Z,8.50
2024-01-21T12:09:30.920Z,8.18
2024-01-21T12:12:01.171Z,7.35
2024-01-21T12:14:29.694Z,8.40
2024-01-21T12:16:58.188Z,7.10
2024-01-21T12:19:29.164Z,7.40
2024-01-21T12:21:57.760Z,7.20
2024-01-21T12:24:26.413Z,8.02
2024-01-21T12:26:57.327Z,6.15
2024-01-21T12:29:26.681Z,5.82
2024-01-21T12:31:55.284Z,6.50
2024-01-21T12:34:24.705Z,6.05
2024-01-21T12:36:54.924Z,6.22
2024-01-21T12:39:24.959Z,5.90
2024-01-21T12:41:53.680Z,6.00
2024-01-21T12:44:23.665Z,5.65
2024-01-21T12:46:52.404Z,5.30
2024-01-21T12:49:20.908Z,5.63
2024-01-21T12:51:49.385Z,5.77
2024-01-21T12:54:17.925Z,5.90
2024-01-21T12:56:46.480Z,6.20
2024-01-21T12:59:15.392Z,6.20
2024-01-21T13:01:46.213Z,6.90
2024-01-21T13:04:14.849Z,5.43
2024-01-21T13:06:43.377Z,5.43
2024-01-21T13:09:11.931Z,5.20
2024-01-21T13:11:40.398Z,5.25
2024-01-21T13:14:10.872Z,4.88
2024-01-21T13:16:40.990Z,5.05
2024-01-21T13:19:11.080Z,6.17
2024-01-21T13:21:40.925Z,5.53
2024-01-21T13:24:10.717Z,5.63
2024-01-21T13:26:42.002Z,6.20
2024-01-21T13:29:26.889Z,9.50
2024-01-21T13:31:55.357Z,6.00
2024-01-21T13:34:25.387Z,5.97
2024-01-21T13:36:54.129Z,5.27
2024-01-21T13:39:26.252Z,5.10
2024-01-21T13:41:54.887Z,4.40
2024-01-21T13:44:23.384Z,4.47
2024-01-21T13:46:53.195Z,4.45
2024-01-21T13:49:21.708Z,4.35
2024-01-21T13:51:51.716Z,4.25
2024-01-21T13:54:20.887Z,4.63
2024-01-21T13:56:53.770Z,4.00
2024-01-21T13:59:22.239Z,4.13
2024-01-21T14:01:57.844Z,4.10
2024-01-21T14:04:34.035Z,4.15
2024-01-21T14:07:04.176Z,3.83
2024-01-21T14:09:33.108Z,3.95
2024-01-21T14:12:01.633Z,3.75
2024-01-21T14:14:30.002Z,4.40
2024-01-21T14:16:58.312Z,3.88
2024-01-21T14:19:26.649Z,4.30
2024-01-21T14:21:55.219Z,4.40
2024-01-21T14:24:28.047Z,4.20
2024-01-21T14:26:56.800Z,3.88
2024-01-21T14:29:29.153Z,4.05
2024-01-21T14:31:58.014Z,3.97
2024-01-21T14:34:26.575Z,5.53
2024-01-21T14:36:55.111Z,5.07
2024-01-21T14:39:25.267Z,4.65
2024-01-21T14:41:53.813Z,4.40
2024-01-21T14:44:22.284Z,6.13
2024-01-21T14:46:50.743Z,13.90
2024-01-21T14:49:19.179Z,7.85
2024-01-21T14:51:48.332Z,6.50
2024-01-21T14:54:16.760Z,4.88
2024-01-21T14:56:46.525Z,4.70
2024-01-21T14:59:14.872Z,4.50
2024-01-21T15:01:43.322Z,4.55
2024-01-21T15:04:12.194Z,5.18
2024-01-21T15:06:40.693Z,4.82
2024-01-21T15:09:09.830Z,4.63
2024-01-21T15:11:40.810Z,4.45
2024-01-21T15:14:31.921Z,4.10
2024-01-21T15:17:00.389Z,4.30
2024-01-21T15:19:28.886Z,4.40
2024-01-21T15:21:57.427Z,4.30
2024-01-21T15:24:25.849Z,4.60
2024-01-21T15:26:54.284Z,4.90
2024-01-21T15:29:25.129Z,4.50
2024-01-21T15:31:53.562Z,4.53
2024-01-21T15:34:22.248Z,4.30
2024-01-21T15:36:51.178Z,4.90
2024-01-21T15:39:20.053Z,4.60
2024-01-21T15:41:48.937Z,4.23
2024-01-21T15:44:17.655Z,4.37
2024-01-21T15:46:47.626Z,3.57
2024-01-21T15:49:16.493Z,4.30
2024-01-21T15:51:46.958Z,3.83
2024-01-21T15:54:17.580Z,4.33
2024-01-21T15:56:46.297Z,4.67
2024-01-21T15:59:14.655Z,4.93
2024-01-21T16:01:43.140Z,5.07
2024-01-21T16:04:13.096Z,5.17
2024-01-21T16:06:41.646Z,5.83
2024-01-21T16:09:10.028Z,6.23
2024-01-21T16:11:38.514Z,7.33
2024-01-21T16:14:06.975Z,7.90
2024-01-21T16:16:35.341Z,9.00
2024-01-21T16:19:04.687Z,8.30
2024-01-21T16:21:34.865Z,7.37
2024-01-21T16:24:03.248Z,7.03
2024-01-21T16:26:32.680Z,6.07
2024-01-21T16:29:01.055Z,4.97
2024-01-21T16:31:29.554Z,4.83
2024-01-21T16:33:58.585Z,4.60
2024-01-21T16:36:27.146Z,5.20
2024-01-21T16:38:56.906Z,5.30
2024-01-21T16:41:25.617Z,5.13
2024-01-21T16:43:53.946Z,5.50
2024-01-21T16:46:22.434Z,6.80
2024-01-21T16:48:51.008Z,5.57
2024-01-21T16:51:19.763Z,6.43
2024-01-21T16:53:48.746Z,7.97
2024-01-21T16:56:18.536Z,5.70
2024-01-21T16:58:47.333Z,6.20
2024-01-21T17:01:18.631Z,6.60
2024-01-21T17:03:47.225Z,7.60
2024-01-21T17:06:15.840Z,6.00
2024-01-21T17:08:44.554Z,5.67
2024-01-21T17:11:21.120Z,5.37
2024-01-21T17:13:50.995Z,5.43
2024-01-21T17:16:19.343Z,4.90
2024-01-21T17:18:51.962Z,5.27
2024-01-21T17:21:20.442Z,4.83
2024-01-21T17:23:49.171Z,5.07
2024-01-21T17:26:17.703Z,5.17
2024-01-21T17:28:47.074Z,5.00
2024-01-21T17:31:16.904Z,4.80
2024-01-21T17:33:47.502Z,4.87
2024-01-21T17:36:17.002Z,4.67
2024-01-21T17:38:45.438Z,4.57
2024-01-21T17:41:13.920Z,5.00
2024-01-21T17:43:42.349Z,4.97
2024-01-21T17:46:15.608Z,4.90
2024-01-21T17:48:46.864Z,6.00
2024-01-21T17:51:15.383Z,5.60
2024-01-21T17:53:44.470Z,4.60
2024-01-21T17:56:15.116Z,5.07
2024-01-21T17:58:43.591Z,5.20
2024-01-21T18:01:12.007Z,5.87
2024-01-21T18:03:40.861Z,5.80
2024-01-21T18:06:10.743Z,5.90
2024-01-21T18:08:39.457Z,5.70
2024-01-21T18:11:07.839Z,5.80
2024-01-21T18:13:36.286Z,6.33
2024-01-21T18:16:05.427Z,5.50
2024-01-21T18:18:33.905Z,5.87
2024-01-21T18:21:02.370Z,5.80
2024-01-21T18:23:33.107Z,6.13
2024-01-21T18:26:01.593Z,6.23
2024-01-21T18:28:30.940Z,5.90
2024-01-21T18:30:59.222Z,6.60
2024-01-21T18:33:28.014Z,6.30
2024-01-21T18:35:56.761Z,6.50
2024-01-21T18:38:25.364Z,6.70
2024-01-21T18:40:55.195Z,7.20
2024-01-21T18:43:24.033Z,6.47
2024-01-21T18:45:53.630Z,6.73
2024-01-21T18:48:22.404Z,7.73
2024-01-21T18:50:50.952Z,7.40
2024-01-21T18:53:19.368Z,7.60
2024-01-21T18:55:48.677Z,6.67
2024-01-21T18:58:27.383Z,6.43
2024-01-21T19:00:56.636Z,6.70
2024-01-21T19:03:27.942Z,6.37
2024-01-21T19:05:56.722Z,6.80
2024-01-21T19:08:25.570Z,6.17
2024-01-21T19:10:54.132Z,5.47
2024-01-21T19:13:23.992Z,6.07
2024-01-21T19:15:52.532Z,5.67
2024-01-21T19:18:21.217Z,6.33
2024-01-21T19:20:50.178Z,6.80
2024-01-21T19:23:18.959Z,7.43
2024-01-21T19:25:47.998Z,7.40
2024-01-21T19:28:16.528Z,7.90
2024-01-21T19:30:46.375Z,7.97
2024-01-21T19:33:14.958Z,8.17
2024-01-21T19:35:43.435Z,7.30
2024-01-21T19:38:11.959Z,7.70
2024-01-21T19:40:42.303Z,9.37
2024-01-21T19:43:10.746Z,8.10
2024-01-21T19:45:39.065Z,7.87
2024-01-21T19:48:09.934Z,8.03
2024-01-21T19:50:38.436Z,9.67
2024-01-21T19:53:07.217Z,9.00
2024-01-21T19:55:35.730Z,7.27
2024-01-21T19:58:06.473Z,6.70
2024-01-21T20:00:35.037Z,6.67
2024-01-21T20:03:03.485Z,7.97
2024-01-21T20:05:33.784Z,10.83
2024-01-21T20:08:04.875Z,9.93
2024-01-21T20:10:33.443Z,6.70
2024-01-21T20:13:01.910Z,8.60
2024-01-21T20:15:30.353Z,10.43
2024-01-21T20:17:59.704Z,6.80
2024-01-21T20:20:34.102Z,7.13
2024-01-21T20:23:02.520Z,6.77
2024-01-21T20:25:32.106Z,7.03
2024-01-21T20:28:00.871Z,7.13
2024-01-21T20:30:30.684Z,6.47
2024-01-21T20:33:00.526Z,7.00
2024-01-21T20:35:29.591Z,6.80
2024-01-21T20:38:01.520Z,6.30
2024-01-21T20:40:30.163Z,6.13
2024-01-21T20:42:58.685Z,6.33
2024-01-21T20:45:27.287Z,7.30
2024-01-21T20:47:57.319Z,6.70
2024-01-21T20:50:25.763Z,6.87
2024-01-21T20:52:56.174Z,6.50
2024-01-21T20:55:30.205Z,6.57
2024-01-21T20:57:58.902Z,6.33
2024-01-21T21:00:27.677Z,6.90
2024-01-21T21:02:56.442Z,6.97
2024-01-21T21:05:29.514Z,7.10
2024-01-21T21:07:59.316Z,7.20
2024-01-21T21:10:29.366Z,6.90
2024-01-21T21:12:58.521Z,6.60
2024-01-21T21:15:27.044Z,6.33
2024-01-21T21:17:55.926Z,6.07
2024-01-21T21:20:24.456Z,6.60
2024-01-21T21:22:53.032Z,6.03
2024-01-21T21:25:21.744Z,6.07
2024-01-21T21:27:52.024Z,5.97
2024-01-21T21:30:20.553Z,5.30
2024-01-21T21:32:49.096Z,5.30
2024-01-21T21:35:19.148Z,5.43
2024-01-21T21:37:54.524Z,4.87
2024-01-21T21:40:23.309Z,4.83
2024-01-21T21:42:53.178Z,4.73
2024-01-21T21:45:23.432Z,4.57
2024-01-21T21:47:52.411Z,5.20
2024-01-21T21:50:23.252Z,4.73
2024-01-21T21:52:56.413Z,4.70
2024-01-21T21:55:29.983Z,5.00
2024-01-21T21:58:00.839Z,4.23
2024-01-21T22:00:29.611Z,4.17
2024-01-21T22:02:58.818Z,4.30
2024-01-21T22:05:27.793Z,4.23
2024-01-21T22:07:56.611Z,4.07
2024-01-21T22:10:27.475Z,3.90
2024-01-21T22:12:56.544Z,3.77
2024-01-21T22:15:26.740Z,3.87
2024-01-21T22:17:56.719Z,3.80
2024-01-21T22:20:25.200Z,3.07
2024-01-21T22:22:53.982Z,3.30
2024-01-21T22:25:22.519Z,3.10
2024-01-21T22:27:51.034Z,3.23
2024-01-21T22:30:19.473Z,3.03
2024-01-21T22:32:49.523Z,3.27
2024-01-21T22:35:18.097Z,2.87
2024-01-21T22:37:47.184Z,3.17
2024-01-21T22:40:15.874Z,3.00
2024-01-21T22:42:47.589Z,2.73
2024-01-21T22:45:16.682Z,2.87
2024-01-21T22:47:45.336Z,3.10
2024-01-21T22:50:16.345Z,2.33
2024-01-21T22:52:44.817Z,2.73
2024-01-21T22:55:14.097Z,2.43
2024-01-21T22:57:42.609Z,2.87
2024-01-21T23:00:16.258Z,3.20
2024-01-21T23:02:44.845Z,3.67
2024-01-21T23:05:13.347Z,3.50
2024-01-21T23:07:43.170Z,3.40
2024-01-21T23:10:12.290Z,3.90
2024-01-21T23:12:41.441Z,3.33
2024-01-21T23:15:10.926Z,3.53
2024-01-21T23:17:39.426Z,3.60
2024-01-21T23:20:09.627Z,3.80
2024-01-21T23:22:38.012Z,3.50
2024-01-21T23:25:08.833Z,3.00
2024-01-21T23:27:37.781Z,2.90
2024-01-21T23:30:08.504Z,3.20
2024-01-21T23:32:37.167Z,3.00
2024-01-21T23:35:07.547Z,2.67
2024-01-21T23:37:35.922Z,3.23
2024-01-21T23:40:04.630Z,2.90
2024-01-21T23:42:34.988Z,2.67
2024-01-21T23:45:03.960Z,2.67
2024-01-21T23:47:32.813Z,3.07
2024-01-21T23:50:01.304Z,2.60
2024-01-21T23:52:29.693Z,2.77
2024-01-21T23:54:58.209Z,3.00
2024-01-21T23:57:26.678Z,3.00
2024-01-21T23:59:56.447Z,2.50
